Terminal Aerodrome Forecast
Issued by NWS

Home | Current Version | Previous Version | Graphics & Text | Print | Product List | Glossary On
Versions: 1 2 3 4 5 6 7 8 9 10 11 12 13 14 15 16 17 18 19 20 21 22 23 24 25 26 27 28 29 30 31 32 33 34
000
FTUS43 KLOT 292326
TAFMDW
TAF
KMDW 292326Z 3000/3024 02004KT P6SM VCSH BKN020 BKN040
     FM300100 03003KT 4SM BR BKN010 OVC025
     FM300400 03003KT 1SM BR OVC005
     FM301500 06004KT 3SM HZ SCT005 BKN009
     FM301800 09006KT P6SM SCT010 BKN025
     FM302300 12004KT P6SM SCT025=

USA.gov is the U.S. government's official web portal to all federal, state and local government web resources and services.